createdAt,value
2018-04-22T00:02:10.636Z,63.90
2018-04-22T00:04:38.383Z,64.00
2018-04-22T00:07:06.117Z,64.30
2018-04-22T00:09:33.840Z,63.90
2018-04-22T00:12:01.581Z,63.80
2018-04-22T00:14:29.313Z,63.60
2018-04-22T00:16:57.057Z,63.40
2018-04-22T00:19:25.588Z,63.50
2018-04-22T00:21:53.325Z,63.40
2018-04-22T00:24:21.066Z,64.00
2018-04-22T00:26:49.575Z,64.20
2018-04-22T00:29:17.310Z,64.00
2018-04-22T00:31:45.812Z,63.80
2018-04-22T00:34:13.552Z,63.80
2018-04-22T00:36:41.316Z,63.50
2018-04-22T00:39:09.032Z,65.10
2018-04-22T00:41:36.770Z,64.50
2018-04-22T00:44:04.520Z,65.90
2018-04-22T00:46:33.033Z,66.40
2018-04-22T00:49:00.785Z,66.30
2018-04-22T00:51:28.526Z,66.40
2018-04-22T00:54:09.025Z,67.40
2018-04-22T00:56:36.786Z,67.30
2018-04-22T00:59:04.537Z,68.00
2018-04-22T01:01:32.275Z,66.70
2018-04-22T01:04:00.005Z,66.60
2018-04-22T01:06:27.756Z,67.90
2018-04-22T01:08:55.499Z,69.00
2018-04-22T01:11:23.218Z,69.50
2018-04-22T01:13:50.980Z,69.50
2018-04-22T01:16:18.710Z,69.70
2018-04-22T01:18:46.433Z,69.40
2018-04-22T01:21:14.952Z,69.50
2018-04-22T01:23:42.700Z,68.80
2018-04-22T01:26:11.245Z,69.50
2018-04-22T01:28:38.986Z,69.50
2018-04-22T01:31:07.485Z,68.40
2018-04-22T01:33:35.206Z,68.40
2018-04-22T01:36:02.959Z,68.20
2018-04-22T01:38:30.689Z,68.00
2018-04-22T01:40:58.437Z,68.50
2018-04-22T01:43:26.180Z,68.90
2018-04-22T01:45:53.912Z,69.30
2018-04-22T01:48:22.416Z,69.50
2018-04-22T01:50:50.136Z,69.50
2018-04-22T01:53:17.882Z,69.30
2018-04-22T01:55:45.617Z,69.10
2018-04-22T01:58:13.348Z,69.40
2018-04-22T02:00:41.839Z,69.10
2018-04-22T02:03:09.544Z,69.10
2018-04-22T02:05:37.280Z,69.50
2018-04-22T02:08:05.028Z,69.00
2018-04-22T02:10:32.765Z,69.20
2018-04-22T02:13:01.249Z,69.50
2018-04-22T02:15:28.994Z,69.50
2018-04-22T02:17:56.727Z,69.80
2018-04-22T02:20:24.467Z,70.10
2018-04-22T02:22:52.209Z,70.60
2018-04-22T02:25:20.709Z,71.00
2018-04-22T02:27:48.426Z,70.90
2018-04-22T02:30:16.161Z,71.50
2018-04-22T02:32:43.897Z,71.40
2018-04-22T02:35:11.614Z,71.60
2018-04-22T02:37:39.389Z,71.40
2018-04-22T02:40:07.140Z,71.20
2018-04-22T02:42:34.884Z,71.10
2018-04-22T02:45:02.625Z,71.10
2018-04-22T02:47:30.370Z,70.90
2018-04-22T02:49:58.886Z,70.90
2018-04-22T02:52:26.661Z,70.90
2018-04-22T02:54:54.357Z,71.00
2018-04-22T02:57:22.062Z,71.30
2018-04-22T02:59:49.764Z,71.30
2018-04-22T03:02:18.241Z,71.00
2018-04-22T03:04:46.711Z,71.60
2018-04-22T03:07:14.411Z,71.20
2018-04-22T03:09:42.120Z,71.30
2018-04-22T03:12:09.824Z,71.60
2018-04-22T03:14:38.295Z,71.90
2018-04-22T03:17:06.758Z,72.20
2018-04-22T03:19:34.448Z,72.20
2018-04-22T03:22:02.913Z,72.60
2018-04-22T03:24:30.610Z,72.50
2018-04-22T03:26:58.316Z,73.10
2018-04-22T03:29:26.030Z,73.20
2018-04-22T03:31:53.749Z,72.90
2018-04-22T03:34:21.453Z,73.10
2018-04-22T03:36:49.165Z,73.10
2018-04-22T03:39:16.860Z,73.00
2018-04-22T03:41:44.554Z,73.60
2018-04-22T03:44:12.258Z,73.20
2018-04-22T03:46:39.970Z,72.90
2018-04-22T03:49:08.441Z,73.30
2018-04-22T03:51:36.919Z,73.00
2018-04-22T03:54:05.393Z,73.40
2018-04-22T03:56:33.097Z,72.80
2018-04-22T03:59:00.804Z,73.40
2018-04-22T04:01:28.505Z,73.10
2018-04-22T04:03:57.002Z,73.30
2018-04-22T04:06:24.722Z,73.20
2018-04-22T04:08:52.429Z,72.90
2018-04-22T04:11:20.138Z,72.50
2018-04-22T04:13:47.854Z,72.80
2018-04-22T04:16:15.553Z,73.10
2018-04-22T04:19:04.179Z,72.90
2018-04-22T04:21:43.949Z,72.60
2018-04-22T04:24:32.466Z,72.60
2018-04-22T04:27:24.769Z,72.70
2018-04-22T04:29:52.476Z,72.60
2018-04-22T04:32:20.188Z,73.10
2018-04-22T04:34:47.888Z,73.20
2018-04-22T04:37:15.584Z,73.10
2018-04-22T04:39:43.294Z,73.00
2018-04-22T04:42:10.992Z,72.70
2018-04-22T04:44:38.704Z,72.50
2018-04-22T04:47:06.422Z,72.80
2018-04-22T04:49:34.153Z,73.50
2018-04-22T04:52:02.633Z,72.90
2018-04-22T04:54:31.097Z,73.20
2018-04-22T04:56:58.787Z,72.70
2018-04-22T04:59:27.252Z,72.90
2018-04-22T05:01:54.957Z,72.90
2018-04-22T05:04:22.657Z,73.10
2018-04-22T05:06:50.373Z,73.20
2018-04-22T05:09:18.072Z,73.00
2018-04-22T05:11:45.773Z,72.90
2018-04-22T05:14:14.250Z,72.90
2018-04-22T05:16:41.956Z,72.70
2018-04-22T05:19:09.668Z,72.60
2018-04-22T05:21:37.383Z,72.80
2018-04-22T05:24:05.141Z,72.70
2018-04-22T05:26:32.841Z,72.70
2018-04-22T05:29:00.545Z,72.20
2018-04-22T05:31:29.009Z,72.10
2018-04-22T05:33:56.708Z,72.00
2018-04-22T05:36:24.448Z,72.00
2018-04-22T05:38:52.913Z,72.30
2018-04-22T05:41:20.616Z,72.10
2018-04-22T05:43:48.321Z,72.20
2018-04-22T05:46:16.040Z,72.30
2018-04-22T05:48:43.808Z,72.30
2018-04-22T05:51:11.506Z,72.20
2018-04-22T05:53:40.016Z,72.20
2018-04-22T05:56:07.716Z,72.00
2018-04-22T05:58:35.418Z,71.60
2018-04-22T06:01:03.216Z,71.70
2018-04-22T06:03:31.133Z,71.50
2018-04-22T06:05:58.913Z,71.20
2018-04-22T06:08:26.661Z,71.30
2018-04-22T06:10:54.390Z,71.20
2018-04-22T06:13:23.055Z,70.60
2018-04-22T06:15:51.627Z,70.60
2018-04-22T06:18:19.426Z,70.60
2018-04-22T06:20:47.952Z,70.50
2018-04-22T06:23:15.733Z,70.50
2018-04-22T06:25:43.473Z,71.40
2018-04-22T06:28:11.226Z,71.60
2018-04-22T06:30:38.981Z,71.80
2018-04-22T06:33:06.733Z,72.60
2018-04-22T06:35:35.254Z,72.30
2018-04-22T06:38:02.989Z,72.30
2018-04-22T06:40:30.745Z,72.50
2018-04-22T06:42:58.505Z,72.80
2018-04-22T06:45:27.054Z,73.30
2018-04-22T06:47:54.811Z,73.20
2018-04-22T06:50:22.579Z,73.20
2018-04-22T06:52:50.334Z,73.00
2018-04-22T06:55:18.094Z,72.30
2018-04-22T06:57:45.853Z,71.90
2018-04-22T07:00:13.594Z,71.40
2018-04-22T07:02:41.354Z,71.20
2018-04-22T07:05:09.094Z,71.50
2018-04-22T07:07:37.609Z,71.20
2018-04-22T07:10:05.362Z,71.10
2018-04-22T07:12:33.117Z,70.50
2018-04-22T07:15:00.860Z,71.00
2018-04-22T07:17:28.597Z,71.00
2018-04-22T07:20:05.006Z,71.60
2018-04-22T07:22:33.973Z,70.10
2018-04-22T07:25:01.822Z,70.10
2018-04-22T07:27:29.552Z,70.50
2018-04-22T07:30:01.266Z,70.00
2018-04-22T07:32:29.021Z,70.00
2018-04-22T07:34:56.741Z,69.60
2018-04-22T07:37:24.497Z,70.80
2018-04-22T07:39:52.269Z,70.10
2018-04-22T07:42:23.586Z,70.10
2018-04-22T07:44:51.340Z,70.10
2018-04-22T07:47:23.977Z,69.90
2018-04-22T07:49:51.720Z,70.00
2018-04-22T07:52:19.477Z,69.80
2018-04-22T07:57:35.741Z,69.60
2018-04-22T08:00:03.546Z,70.40
2018-04-22T08:02:32.045Z,67.80
2018-04-22T08:04:59.796Z,67.80
2018-04-22T08:07:28.361Z,67.20
2018-04-22T08:09:56.113Z,67.20
2018-04-22T08:12:23.885Z,68.50
2018-04-22T08:14:51.636Z,68.50
2018-04-22T08:17:19.432Z,67.70
2018-04-22T08:19:47.185Z,68.20
2018-04-22T08:22:14.938Z,68.30
2018-04-22T08:24:42.694Z,67.30
2018-04-22T08:27:10.467Z,67.50
2018-04-22T08:29:38.218Z,67.30
2018-04-22T08:32:05.966Z,67.40
2018-04-22T08:34:33.729Z,67.40
2018-04-22T08:37:01.458Z,67.50
2018-04-22T08:39:29.966Z,67.00
2018-04-22T08:41:57.718Z,67.00
2018-04-22T08:44:25.467Z,66.80
2018-04-22T08:46:54.029Z,67.60
2018-04-22T08:49:21.774Z,67.60
2018-04-22T08:51:49.491Z,65.70
2018-04-22T08:54:17.257Z,65.50
2018-04-22T08:56:44.985Z,65.50
2018-04-22T08:59:12.733Z,64.70
2018-04-22T09:01:40.495Z,64.70
2018-04-22T09:04:08.228Z,64.10
2018-04-22T09:06:35.983Z,64.40
2018-04-22T09:09:03.813Z,66.20
2018-04-22T09:11:32.343Z,66.00
2018-04-22T09:14:00.084Z,66.00
2018-04-22T09:16:27.828Z,65.10
2018-04-22T09:18:56.357Z,65.60
2018-04-22T09:21:24.153Z,65.50
2018-04-22T09:23:51.889Z,63.10
2018-04-22T09:26:20.397Z,63.70
2018-04-22T09:28:48.161Z,63.60
2018-04-22T09:31:15.924Z,62.40
2018-04-22T09:33:43.638Z,62.70
2018-04-22T09:36:11.377Z,62.70
2018-04-22T09:38:39.882Z,63.40
2018-04-22T09:41:07.617Z,63.40
2018-04-22T09:43:35.364Z,63.90
2018-04-22T09:46:03.128Z,64.20
2018-04-22T09:48:30.850Z,61.30
2018-04-22T09:50:58.595Z,60.40
2018-04-22T09:53:27.192Z,60.60
2018-04-22T09:55:54.918Z,60.60
2018-04-22T09:58:22.681Z,59.30
2018-04-22T10:00:50.473Z,59.80
2018-04-22T10:03:18.205Z,59.20
2018-04-22T10:05:45.916Z,58.80
2018-04-22T10:08:13.619Z,57.90
2018-04-22T10:10:41.342Z,57.60
2018-04-22T10:13:09.157Z,58.60
2018-04-22T10:15:36.933Z,56.20
2018-04-22T10:18:04.678Z,56.80
2018-04-22T10:20:39.132Z,58.80
2018-04-22T10:23:07.702Z,57.20
2018-04-22T10:25:36.854Z,57.20
2018-04-22T10:28:04.632Z,57.40
2018-04-22T10:30:32.432Z,57.40
2018-04-22T10:33:02.607Z,57.30
2018-04-22T10:35:30.346Z,58.10
2018-04-22T10:37:58.105Z,56.90
2018-04-22T10:40:25.868Z,58.00
2018-04-22T10:42:53.599Z,57.50
2018-04-22T10:45:21.370Z,57.20
2018-04-22T10:47:49.974Z,56.30
2018-04-22T10:52:56.856Z,56.90
2018-04-22T10:58:23.684Z,55.10
2018-04-22T11:00:55.477Z,55.10
2018-04-22T11:03:25.710Z,54.60
2018-04-22T11:06:16.414Z,55.70
2018-04-22T11:08:44.934Z,56.40
2018-04-22T11:11:12.187Z,55.60
2018-04-22T19:11:04.921Z,48.50
2018-04-22T19:13:32.632Z,49.70
2018-04-22T19:16:01.091Z,50.20
2018-04-22T19:18:28.789Z,50.20
2018-04-22T19:20:57.970Z,51.30
2018-04-22T19:23:26.512Z,51.80
2018-04-22T19:25:54.319Z,51.80
2018-04-22T19:28:22.849Z,52.10
2018-04-22T19:30:50.521Z,51.80
2018-04-22T19:33:18.315Z,52.40
2018-04-22T19:35:46.207Z,51.80
2018-04-22T19:38:14.103Z,53.00
2018-04-22T19:40:42.036Z,54.00
2018-04-22T19:43:10.668Z,53.10
2018-04-22T19:45:38.558Z,53.00
2018-04-22T19:48:06.733Z,53.20
2018-04-22T19:50:34.543Z,54.00
2018-04-22T20:20:49.619Z,53.70
2018-04-22T20:23:18.276Z,54.70
2018-04-22T20:25:46.855Z,55.60
2018-04-22T20:28:15.423Z,54.60
2018-04-22T20:30:44.000Z,55.10
2018-04-22T20:33:12.556Z,54.90
2018-04-22T20:35:41.113Z,55.70
2018-04-22T20:38:09.661Z,55.80
2018-04-22T20:40:38.227Z,56.00
2018-04-22T20:43:06.885Z,55.60
2018-04-22T20:45:36.214Z,55.10
2018-04-22T20:48:04.825Z,55.00
2018-04-22T20:50:33.396Z,54.40
2018-04-22T20:53:01.972Z,54.70
2018-04-22T20:55:30.538Z,55.30
2018-04-22T20:57:59.103Z,54.70
2018-04-22T21:00:28.408Z,55.60
2018-04-22T21:02:57.729Z,55.60
2018-04-22T21:05:26.277Z,55.60
2018-04-22T21:07:55.635Z,55.10
2018-04-22T21:10:24.204Z,56.30
2018-04-22T21:12:52.767Z,54.30
2018-04-22T21:15:21.321Z,55.70
2018-04-22T21:17:49.860Z,55.00
2018-04-22T21:20:18.430Z,54.70
2018-04-22T21:22:47.003Z,54.80
2018-04-22T21:25:16.327Z,54.50
2018-04-22T21:27:44.865Z,54.50
2018-04-22T21:30:13.403Z,53.70
2018-04-22T21:32:41.946Z,54.10
2018-04-22T21:35:17.519Z,54.40
2018-04-22T21:37:46.075Z,54.30
2018-04-22T21:40:15.408Z,54.30
2018-04-22T21:42:43.942Z,54.40
2018-04-22T21:45:12.486Z,55.40
2018-04-22T21:47:41.059Z,54.20
2018-04-22T21:50:09.616Z,54.60
2018-04-22T21:52:38.931Z,53.90
2018-04-22T21:55:07.490Z,53.90
2018-04-22T21:57:36.827Z,55.10
2018-04-22T22:00:07.401Z,55.20
2018-04-22T22:02:35.989Z,55.90
2018-04-22T22:05:04.539Z,55.00
2018-04-22T22:07:33.090Z,54.90
2018-04-22T22:10:01.661Z,54.50
2018-04-22T22:12:31.019Z,54.70
2018-04-22T22:14:59.582Z,54.70
2018-04-22T22:17:28.138Z,55.00
2018-04-22T22:19:57.522Z,55.80
2018-04-22T22:22:26.847Z,55.50
2018-04-22T22:24:55.409Z,55.50
2018-04-22T22:27:24.722Z,54.00
2018-04-22T22:29:53.271Z,54.00
2018-04-22T22:32:21.835Z,54.10
2018-04-22T22:34:50.402Z,55.00
2018-04-22T22:37:19.709Z,55.70
2018-04-22T22:39:48.247Z,55.70
2018-04-22T22:42:17.550Z,56.10
2018-04-22T22:44:46.870Z,56.10
2018-04-22T22:47:15.416Z,56.10
2018-04-22T22:49:43.956Z,56.60
2018-04-22T22:52:12.503Z,55.70
2018-04-22T22:54:41.826Z,55.70
2018-04-22T22:57:10.410Z,55.60
2018-04-22T22:59:38.961Z,56.50
2018-04-22T23:02:08.273Z,56.90
2018-04-22T23:04:37.618Z,57.60
2018-04-22T23:07:06.165Z,57.60
2018-04-22T23:09:35.480Z,56.80
2018-04-22T23:12:04.065Z,56.70
2018-04-22T23:14:32.608Z,57.30
2018-04-22T23:17:01.143Z,57.10
2018-04-22T23:19:29.710Z,56.90
2018-04-22T23:21:58.266Z,57.90
2018-04-22T23:24:27.574Z,58.70
2018-04-22T23:26:56.153Z,58.50
2018-04-22T23:29:25.479Z,58.30
2018-04-22T23:31:54.043Z,58.30
2018-04-22T23:34:23.355Z,59.30
2018-04-22T23:36:52.673Z,59.00
2018-04-22T23:39:21.210Z,58.90
2018-04-22T23:41:49.753Z,58.90
2018-04-22T23:44:18.311Z,59.10
2018-04-22T23:46:46.870Z,58.90
2018-04-22T23:49:16.181Z,59.30
2018-04-22T23:51:44.754Z,59.20
2018-04-22T23:54:14.058Z,60.30
2018-04-22T23:56:43.365Z,59.90
2018-04-22T23:59:12.688Z,60.20
